createdAt,value
2018-12-29T00:00:55.781Z,3.00
2018-12-29T00:03:24.029Z,2.80
2018-12-29T00:05:52.292Z,2.90
2018-12-29T00:08:20.496Z,2.70
2018-12-29T00:10:48.745Z,2.60
2018-12-29T00:13:16.949Z,2.60
2018-12-29T00:15:45.935Z,2.60
2018-12-29T00:18:14.133Z,2.60
2018-12-29T00:20:42.341Z,2.70
2018-12-29T00:23:11.410Z,2.80
2018-12-29T00:25:39.671Z,2.80
2018-12-29T00:28:08.679Z,2.80
2018-12-29T00:30:37.665Z,2.60
2018-12-29T00:33:05.920Z,2.60
2018-12-29T00:35:34.167Z,2.70
2018-12-29T00:38:02.431Z,2.70
2018-12-29T00:40:30.666Z,2.70
2018-12-29T00:42:59.677Z,2.70
2018-12-29T00:45:27.923Z,2.70
2018-12-29T00:47:56.179Z,2.60
2018-12-29T00:50:24.387Z,2.60
2018-12-29T00:52:53.379Z,2.60
2018-12-29T00:55:22.397Z,2.60
2018-12-29T00:57:50.593Z,2.60
2018-12-29T01:00:18.817Z,2.70
2018-12-29T01:02:47.023Z,2.70
2018-12-29T01:05:15.263Z,2.70
2018-12-29T01:07:43.465Z,2.70
2018-12-29T01:10:11.731Z,2.80
2018-12-29T01:12:40.719Z,2.70
2018-12-29T01:15:10.352Z,2.50
2018-12-29T01:17:38.002Z,2.50
2018-12-29T01:20:06.237Z,2.40
2018-12-29T01:22:34.434Z,2.50
2018-12-29T01:25:02.695Z,2.60
2018-12-29T01:27:30.899Z,2.60
2018-12-29T01:29:59.922Z,2.70
2018-12-29T01:32:28.165Z,2.70
2018-12-29T01:34:56.394Z,2.70
2018-12-29T01:37:24.647Z,2.70
2018-12-29T01:39:53.661Z,2.80
2018-12-29T01:42:21.871Z,2.80
2018-12-29T01:44:50.089Z,2.80
2018-12-29T01:47:18.367Z,2.80
2018-12-29T01:49:46.551Z,2.90
2018-12-29T01:52:14.822Z,2.80
2018-12-29T01:54:43.823Z,2.80
2018-12-29T01:57:12.081Z,2.80
2018-12-29T01:59:41.049Z,2.90
2018-12-29T02:02:09.297Z,2.90
2018-12-29T02:04:37.547Z,2.90
2018-12-29T02:07:05.805Z,2.90
2018-12-29T02:09:34.769Z,2.90
2018-12-29T02:12:02.987Z,2.90
2018-12-29T02:14:31.237Z,2.90
2018-12-29T02:16:59.529Z,2.90
2018-12-29T02:19:28.495Z,2.70
2018-12-29T02:21:56.705Z,2.70
2018-12-29T02:24:24.917Z,2.70
2018-12-29T02:26:53.129Z,2.60
2018-12-29T02:29:21.381Z,2.70
2018-12-29T02:31:49.579Z,2.60
2018-12-29T02:34:17.801Z,2.40
2018-12-29T02:36:46.049Z,2.50
2018-12-29T02:39:15.062Z,2.50
2018-12-29T02:41:43.299Z,2.50
2018-12-29T02:44:11.561Z,2.40
2018-12-29T02:46:39.765Z,2.30
2018-12-29T02:49:08.788Z,2.30
2018-12-29T02:51:36.993Z,2.30
2018-12-29T02:54:05.186Z,2.20
2018-12-29T02:56:33.408Z,1.90
2018-12-29T02:59:01.610Z,1.80
2018-12-29T03:01:29.830Z,1.70
2018-12-29T03:03:58.068Z,1.80
2018-12-29T03:06:26.328Z,1.90
2018-12-29T03:08:54.530Z,1.70
2018-12-29T03:11:22.792Z,1.60
2018-12-29T03:13:51.032Z,1.40
2018-12-29T03:16:20.009Z,1.40
2018-12-29T03:18:48.984Z,1.50
2018-12-29T03:21:17.267Z,1.50
2018-12-29T03:23:45.560Z,1.40
2018-12-29T03:26:13.776Z,1.40
2018-12-29T03:28:41.989Z,1.50
2018-12-29T03:31:10.244Z,1.40
2018-12-29T03:33:38.451Z,1.40
2018-12-29T03:36:06.659Z,1.50
2018-12-29T03:38:34.908Z,1.30
2018-12-29T03:41:03.146Z,1.30
2018-12-29T03:43:31.394Z,1.20
2018-12-29T03:45:59.640Z,1.10
2018-12-29T03:48:27.858Z,1.30
2018-12-29T03:50:56.096Z,1.40
2018-12-29T03:53:25.075Z,1.50
2018-12-29T03:55:53.281Z,1.50
2018-12-29T04:05:49.931Z,1.50
2018-12-29T04:08:18.194Z,1.50
2018-12-29T04:10:46.458Z,1.60
2018-12-29T04:13:14.708Z,1.50
2018-12-29T04:15:43.684Z,1.30
2018-12-29T04:18:12.650Z,1.40
2018-12-29T04:20:40.921Z,1.40
2018-12-29T04:23:09.114Z,1.30
2018-12-29T04:25:37.331Z,1.40
2018-12-29T04:28:05.594Z,1.50
2018-12-29T04:30:34.566Z,1.60
2018-12-29T04:33:02.775Z,1.60
2018-12-29T04:35:30.984Z,1.70
2018-12-29T04:37:59.192Z,1.80
2018-12-29T04:40:27.415Z,1.80
2018-12-29T04:42:55.654Z,1.80
2018-12-29T04:45:23.914Z,1.70
2018-12-29T04:47:52.145Z,1.70
2018-12-29T04:50:20.397Z,1.70
2018-12-29T04:52:49.416Z,1.70
2018-12-29T04:55:17.612Z,1.70
2018-12-29T04:57:45.842Z,1.70
2018-12-29T05:00:14.854Z,1.80
2018-12-29T05:02:43.102Z,1.70
2018-12-29T05:05:11.298Z,1.60
2018-12-29T05:07:39.556Z,1.50
2018-12-29T05:10:08.576Z,1.70
2018-12-29T05:12:37.580Z,1.80
2018-12-29T05:15:05.782Z,1.80
2018-12-29T05:17:33.998Z,1.80
2018-12-29T05:20:03.017Z,2.00
2018-12-29T05:22:31.267Z,2.00
2018-12-29T05:24:59.505Z,2.10
2018-12-29T05:27:27.765Z,2.10
2018-12-29T05:29:55.964Z,2.20
2018-12-29T05:32:24.246Z,2.20
2018-12-29T05:34:52.495Z,2.30
2018-12-29T05:37:20.751Z,2.30
2018-12-29T05:39:48.910Z,2.30
2018-12-29T05:42:17.921Z,2.40
2018-12-29T05:44:46.137Z,2.40
2018-12-29T05:47:14.351Z,2.40
2018-12-29T05:49:43.334Z,2.30
2018-12-29T05:52:11.570Z,2.30
2018-12-29T05:54:39.830Z,2.40
2018-12-29T05:57:08.064Z,2.30
2018-12-29T05:59:36.320Z,2.40
2018-12-29T06:02:04.567Z,2.40
2018-12-29T06:04:32.843Z,2.40
2018-12-29T06:07:01.051Z,2.50
2018-12-29T06:09:29.293Z,2.50
2018-12-29T06:11:57.517Z,2.50
2018-12-29T06:14:25.729Z,2.50
2018-12-29T06:16:53.981Z,2.50
2018-12-29T06:19:22.178Z,2.50
2018-12-29T06:21:50.406Z,2.50
2018-12-29T06:24:18.686Z,2.40
2018-12-29T06:26:47.592Z,2.40
2018-12-29T06:29:15.796Z,2.40
2018-12-29T06:31:44.054Z,2.50
2018-12-29T06:34:13.067Z,2.40
2018-12-29T06:36:42.049Z,2.40
2018-12-29T06:39:11.053Z,2.40
2018-12-29T06:41:40.033Z,2.30
2018-12-29T06:44:09.019Z,2.30
2018-12-29T06:46:37.257Z,2.30
2018-12-29T06:49:05.509Z,2.30
2018-12-29T06:51:33.750Z,2.30
2018-12-29T06:54:01.993Z,2.20
2018-12-29T06:56:30.189Z,2.20
2018-12-29T06:58:58.400Z,2.30
2018-12-29T07:01:26.653Z,2.20
2018-12-29T07:03:54.871Z,2.30
2018-12-29T07:06:23.073Z,2.30
2018-12-29T07:08:51.300Z,2.40
2018-12-29T07:11:19.515Z,2.40
2018-12-29T07:13:47.725Z,2.40
2018-12-29T07:16:15.969Z,2.40
2018-12-29T07:18:44.219Z,2.40
2018-12-29T07:21:12.462Z,2.40
2018-12-29T07:23:40.658Z,2.40
2018-12-29T07:26:08.916Z,2.40
2018-12-29T07:28:37.155Z,2.50
2018-12-29T07:31:05.417Z,2.50
2018-12-29T07:33:33.665Z,2.50
2018-12-29T07:36:02.644Z,2.60
2018-12-29T07:38:31.676Z,2.60
2018-12-29T07:40:59.895Z,2.60
2018-12-29T07:43:28.114Z,2.60
2018-12-29T07:45:56.366Z,2.60
2018-12-29T07:48:24.574Z,2.70
2018-12-29T07:50:52.836Z,2.70
2018-12-29T07:53:21.836Z,2.80
2018-12-29T07:55:50.031Z,2.80
2018-12-29T07:58:18.266Z,2.80
2018-12-29T08:00:47.280Z,2.80
2018-12-29T08:03:16.262Z,2.80
2018-12-29T08:05:45.274Z,2.70
2018-12-29T08:08:13.504Z,2.60
2018-12-29T08:10:41.704Z,2.70
2018-12-29T08:13:10.735Z,2.60
2018-12-29T08:15:38.975Z,2.60
2018-12-29T08:18:07.183Z,2.60
2018-12-29T08:20:35.427Z,2.60
2018-12-29T08:23:04.405Z,2.60
2018-12-29T08:25:32.656Z,2.60
2018-12-29T08:28:00.914Z,2.50
2018-12-29T08:30:29.120Z,2.60
2018-12-29T08:32:58.668Z,2.60
2018-12-29T08:35:27.679Z,2.60
2018-12-29T08:37:55.887Z,2.60
2018-12-29T08:40:24.149Z,2.50
2018-12-29T08:42:52.357Z,2.60
2018-12-29T08:45:20.581Z,2.70
2018-12-29T08:47:48.779Z,2.80
2018-12-29T08:50:17.835Z,2.80
2018-12-29T08:52:46.805Z,2.90
2018-12-29T08:55:15.057Z,2.90
2018-12-29T08:57:43.271Z,2.90
2018-12-29T09:00:12.349Z,3.00
2018-12-29T09:02:40.540Z,3.00
2018-12-29T09:05:09.585Z,2.80
2018-12-29T09:07:37.854Z,2.80
2018-12-29T09:10:06.061Z,2.90
2018-12-29T09:12:34.317Z,3.00
2018-12-29T09:15:02.523Z,3.00
2018-12-29T09:17:30.767Z,3.10
2018-12-29T09:19:59.009Z,3.10
2018-12-29T09:22:28.002Z,3.10
2018-12-29T09:24:57.039Z,3.20
2018-12-29T09:27:25.277Z,3.20
2018-12-29T09:29:54.255Z,3.10
2018-12-29T09:32:23.255Z,3.10
2018-12-29T09:34:52.243Z,2.90
2018-12-29T09:37:21.278Z,2.80
2018-12-29T09:39:49.513Z,2.80
2018-12-29T09:42:17.729Z,2.80
2018-12-29T09:44:45.970Z,2.80
2018-12-29T09:47:19.673Z,2.80
2018-12-29T09:49:43.181Z,2.80
2018-12-29T09:52:11.445Z,2.70
2018-12-29T09:54:39.695Z,2.90
2018-12-29T09:57:07.943Z,2.80
2018-12-29T09:59:36.182Z,2.60
2018-12-29T10:02:04.406Z,2.70
2018-12-29T10:04:32.598Z,2.70
2018-12-29T10:07:01.588Z,2.80
2018-12-29T10:09:29.831Z,2.80
2018-12-29T10:11:58.028Z,3.00
2018-12-29T10:14:26.263Z,3.10
2018-12-29T10:16:54.510Z,2.90
2018-12-29T10:19:22.732Z,2.90
2018-12-29T10:21:50.942Z,3.00
2018-12-29T10:24:19.946Z,3.10
2018-12-29T10:26:48.966Z,3.20
2018-12-29T10:29:17.215Z,3.20
2018-12-29T10:31:46.185Z,3.10
2018-12-29T10:34:14.449Z,3.10
2018-12-29T10:36:42.690Z,3.20
2018-12-29T10:39:10.903Z,3.10
2018-12-29T10:41:39.150Z,3.00
2018-12-29T10:44:07.359Z,3.10
2018-12-29T10:46:35.878Z,3.20
2018-12-29T10:49:04.929Z,3.30
2018-12-29T10:51:33.184Z,3.30
2018-12-29T10:54:01.422Z,3.30
2018-12-29T10:56:29.607Z,3.40
2018-12-29T10:58:57.886Z,3.40
2018-12-29T11:01:26.859Z,3.40
2018-12-29T11:03:55.879Z,3.50
2018-12-29T11:06:24.158Z,3.50
2018-12-29T11:08:52.392Z,3.50
2018-12-29T11:11:20.639Z,3.50
2018-12-29T11:13:48.847Z,3.60
2018-12-29T11:16:17.063Z,3.60
2018-12-29T11:18:45.321Z,3.60
2018-12-29T11:21:14.293Z,3.60
2018-12-29T11:23:44.043Z,3.70
2018-12-29T11:26:12.273Z,3.60
2018-12-29T11:28:40.487Z,3.70
2018-12-29T11:31:08.734Z,3.60
2018-12-29T11:33:36.981Z,3.70
2018-12-29T11:36:05.220Z,3.70
2018-12-29T11:38:33.481Z,3.70
2018-12-29T11:41:01.715Z,3.70
2018-12-29T11:43:29.928Z,3.80
2018-12-29T11:45:58.890Z,3.90
2018-12-29T11:48:27.098Z,3.90
2018-12-29T11:50:56.093Z,3.90
2018-12-29T11:53:25.103Z,4.00
2018-12-29T11:55:54.086Z,4.00
2018-12-29T11:58:23.111Z,4.00
2018-12-29T12:00:51.386Z,4.00
2018-12-29T12:03:19.594Z,4.10
2018-12-29T12:05:47.845Z,4.10
2018-12-29T12:08:16.056Z,4.10
2018-12-29T12:10:44.286Z,4.10
2018-12-29T12:13:12.491Z,4.10
2018-12-29T12:15:40.694Z,4.10
2018-12-29T12:18:08.957Z,4.20
2018-12-29T12:20:37.180Z,4.20
2018-12-29T12:23:05.393Z,4.20
2018-12-29T12:25:33.659Z,4.20
2018-12-29T12:28:01.861Z,4.20
2018-12-29T12:30:30.075Z,4.20
2018-12-29T12:32:59.059Z,4.20
2018-12-29T12:35:28.073Z,4.10
2018-12-29T12:37:57.059Z,4.20
2018-12-29T12:40:26.040Z,4.20
2018-12-29T12:42:55.058Z,4.20
2018-12-29T12:45:23.256Z,4.20
2018-12-29T12:47:51.521Z,4.20
2018-12-29T12:50:19.742Z,4.20
2018-12-29T12:52:47.950Z,4.20
2018-12-29T12:55:16.935Z,4.20
2018-12-29T12:57:45.199Z,4.20
2018-12-29T13:00:13.397Z,4.10
2018-12-29T13:02:42.449Z,4.20
2018-12-29T13:05:10.711Z,4.20
2018-12-29T13:07:38.950Z,4.20
2018-12-29T13:10:07.977Z,4.30
2018-12-29T13:12:36.210Z,4.20
2018-12-29T13:15:05.228Z,4.30
2018-12-29T13:17:33.476Z,4.30
2018-12-29T13:20:01.733Z,4.30
2018-12-29T13:22:29.972Z,4.30
2018-12-29T13:24:58.195Z,4.40
2018-12-29T13:27:26.403Z,4.40
2018-12-29T13:29:54.640Z,4.40
2018-12-29T13:32:22.881Z,4.30
2018-12-29T13:34:51.136Z,4.40
2018-12-29T13:37:19.356Z,4.30
2018-12-29T13:39:47.611Z,4.30
2018-12-29T13:42:15.876Z,4.30
2018-12-29T13:44:44.112Z,4.40
2018-12-29T13:47:12.338Z,4.40
2018-12-29T13:49:40.552Z,4.30
2018-12-29T13:52:08.778Z,4.20
2018-12-29T13:54:37.005Z,4.20
2018-12-29T13:57:05.271Z,4.20
2018-12-29T13:59:33.485Z,4.20
2018-12-29T14:02:02.517Z,4.00
2018-12-29T14:04:30.759Z,4.00
2018-12-29T14:06:59.743Z,3.90
2018-12-29T14:09:28.765Z,4.00
2018-12-29T14:11:56.994Z,4.00
2018-12-29T14:14:25.203Z,3.90
2018-12-29T14:16:53.478Z,3.90
2018-12-29T14:19:22.441Z,4.00
2018-12-29T14:21:50.660Z,4.00
2018-12-29T14:24:18.934Z,3.80
2018-12-29T14:26:47.184Z,3.60
2018-12-29T14:29:16.208Z,3.70
2018-12-29T14:31:44.445Z,3.80
2018-12-29T14:34:12.695Z,3.80
2018-12-29T14:36:42.519Z,3.90
2018-12-29T14:39:09.203Z,3.90
2018-12-29T14:41:38.205Z,3.70
2018-12-29T14:44:06.429Z,3.70
2018-12-29T14:46:34.695Z,3.70
2018-12-29T14:49:02.955Z,3.80
2018-12-29T14:51:31.153Z,3.80
2018-12-29T14:53:59.382Z,3.80
2018-12-29T14:56:27.639Z,3.70
2018-12-29T14:58:56.648Z,3.70
2018-12-29T15:01:25.695Z,3.70
2018-12-29T15:03:54.261Z,3.70
2018-12-29T15:06:22.618Z,3.70
2018-12-29T15:08:50.810Z,3.90
2018-12-29T15:11:19.682Z,4.00
2018-12-29T15:13:47.297Z,3.80
2018-12-29T15:16:15.563Z,3.90
2018-12-29T15:18:44.032Z,4.00
2018-12-29T15:21:12.774Z,4.00
2018-12-29T15:23:41.755Z,4.00
2018-12-29T15:26:10.009Z,4.00
2018-12-29T15:28:38.211Z,3.90
2018-12-29T15:31:07.263Z,3.80
2018-12-29T15:33:35.469Z,3.80
2018-12-29T15:36:03.677Z,3.90
2018-12-29T15:38:32.727Z,4.00
2018-12-29T15:41:00.978Z,4.00
2018-12-29T15:43:29.246Z,4.10
2018-12-29T15:45:57.510Z,4.00
2018-12-29T15:48:25.786Z,4.00
2018-12-29T15:50:54.039Z,4.00
2018-12-29T15:53:22.260Z,4.00
2018-12-29T15:55:50.476Z,4.00
2018-12-29T15:58:18.697Z,4.00
2018-12-29T16:00:46.933Z,4.10
2018-12-29T16:03:15.160Z,4.10
2018-12-29T16:05:43.365Z,4.10
2018-12-29T16:08:11.628Z,4.10
2018-12-29T16:10:39.842Z,4.10
2018-12-29T16:13:08.060Z,4.00
2018-12-29T16:15:36.474Z,4.00
2018-12-29T16:18:04.712Z,3.80
2018-12-29T16:20:32.973Z,3.90
2018-12-29T16:23:01.227Z,4.10
2018-12-29T16:25:29.502Z,4.10
2018-12-29T16:27:57.706Z,4.10
2018-12-29T16:30:25.992Z,4.10
2018-12-29T16:32:54.238Z,4.00
2018-12-29T16:35:22.444Z,4.10
2018-12-29T16:37:50.665Z,4.10
2018-12-29T16:40:18.891Z,4.00
2018-12-29T16:42:47.886Z,4.10
2018-12-29T16:45:15.416Z,4.00
2018-12-29T16:47:43.624Z,4.10
2018-12-29T16:50:11.891Z,4.10
2018-12-29T16:52:40.896Z,4.10
2018-12-29T16:55:09.135Z,4.10
2018-12-29T16:57:37.334Z,4.00
2018-12-29T17:00:06.356Z,4.10
2018-12-29T17:02:34.624Z,4.10
2018-12-29T17:05:02.854Z,4.20
2018-12-29T17:07:31.083Z,4.20
2018-12-29T17:09:59.274Z,4.10
2018-12-29T17:12:27.561Z,4.20
2018-12-29T17:14:55.817Z,4.00
2018-12-29T17:17:24.088Z,3.80
2018-12-29T17:19:52.386Z,3.70
2018-12-29T17:22:20.656Z,3.90
2018-12-29T17:24:48.894Z,4.00
2018-12-29T17:27:17.874Z,4.10
2018-12-29T17:29:46.899Z,4.00
2018-12-29T17:32:15.912Z,4.10
2018-12-29T17:34:44.162Z,4.00
2018-12-29T17:37:12.435Z,4.10
2018-12-29T17:39:41.387Z,4.20
2018-12-29T17:42:09.642Z,4.10
2018-12-29T17:44:37.857Z,3.90
2018-12-29T17:47:06.887Z,3.80
2018-12-29T17:49:35.138Z,4.00
2018-12-29T17:52:04.166Z,3.90
2018-12-29T17:54:32.419Z,3.90
2018-12-29T17:57:01.432Z,4.10
2018-12-29T17:59:30.628Z,4.00
2018-12-29T18:01:58.878Z,3.70
2018-12-29T18:04:27.141Z,3.80
2018-12-29T18:06:55.401Z,3.80
2018-12-29T18:09:23.670Z,3.90
2018-12-29T18:11:51.914Z,3.90
2018-12-29T18:14:20.123Z,3.90
2018-12-29T18:16:48.371Z,3.80
2018-12-29T18:19:16.591Z,3.90
2018-12-29T18:21:44.841Z,4.00
2018-12-29T18:24:13.109Z,3.90
2018-12-29T18:26:41.367Z,3.90
2018-12-29T18:29:09.796Z,4.00
2018-12-29T18:31:38.049Z,3.80
2018-12-29T18:34:06.255Z,3.80
2018-12-29T18:36:34.492Z,3.90
2018-12-29T18:39:02.710Z,4.00
2018-12-29T18:41:30.979Z,4.00
2018-12-29T18:43:59.222Z,4.00
2018-12-29T18:46:27.452Z,4.10
2018-12-29T18:48:55.708Z,4.20
2018-12-29T18:51:23.922Z,4.30
2018-12-29T18:53:52.911Z,4.30
2018-12-29T18:56:21.992Z,4.30
2018-12-29T18:58:50.202Z,4.30
2018-12-29T19:01:18.445Z,4.20
2018-12-29T19:03:46.647Z,4.20
2018-12-29T19:06:14.867Z,4.30
2018-12-29T19:08:43.122Z,4.40
2018-12-29T19:11:11.354Z,4.40
2018-12-29T19:13:39.567Z,4.30
2018-12-29T19:16:07.788Z,4.40
2018-12-29T19:18:41.625Z,4.50
2018-12-29T19:21:04.218Z,4.50
2018-12-29T19:23:33.203Z,4.20
2018-12-29T19:26:01.410Z,4.20
2018-12-29T19:28:29.675Z,4.30
2018-12-29T19:30:57.942Z,4.30
2018-12-29T19:33:26.171Z,4.20
2018-12-29T19:35:55.182Z,4.50
2018-12-29T19:38:23.441Z,4.50
2018-12-29T19:40:53.713Z,4.30
2018-12-29T19:43:21.933Z,4.30
2018-12-29T19:45:50.935Z,4.20
2018-12-29T19:48:19.978Z,4.20
2018-12-29T19:50:48.207Z,4.20
2018-12-29T19:53:16.461Z,4.00
2018-12-29T19:55:45.359Z,4.10
2018-12-29T19:58:14.377Z,4.00
2018-12-29T20:00:44.447Z,3.90
2018-12-29T20:03:12.658Z,4.00
2018-12-29T20:05:41.631Z,4.00
2018-12-29T20:08:10.657Z,4.00
2018-12-29T20:10:39.699Z,4.10
2018-12-29T20:13:07.967Z,4.10
2018-12-29T20:15:36.205Z,4.00
2018-12-29T20:18:05.215Z,3.90
2018-12-29T20:20:33.435Z,4.00
2018-12-29T20:23:01.709Z,3.90
2018-12-29T20:25:29.957Z,4.10
2018-12-29T20:27:59.361Z,4.00
2018-12-29T20:30:27.571Z,4.00
2018-12-29T20:32:59.114Z,3.80
2018-12-29T20:35:24.103Z,3.90
2018-12-29T20:37:52.401Z,4.00
2018-12-29T20:40:20.623Z,4.00
2018-12-29T20:42:48.937Z,4.00
2018-12-29T20:45:17.206Z,4.00
2018-12-29T20:47:45.450Z,4.00
2018-12-29T20:50:13.666Z,4.10
2018-12-29T20:52:41.911Z,4.10
2018-12-29T20:55:10.167Z,4.10
2018-12-29T20:57:39.212Z,4.10
2018-12-29T21:00:07.621Z,4.10
2018-12-29T21:02:35.831Z,4.20
2018-12-29T21:05:04.836Z,4.20
2018-12-29T21:07:33.088Z,4.20
2018-12-29T21:10:01.315Z,4.20
2018-12-29T21:12:29.564Z,4.30
2018-12-29T21:14:57.818Z,4.30
2018-12-29T21:17:26.835Z,4.20
2018-12-29T21:19:55.102Z,4.20
2018-12-29T21:22:24.160Z,4.20
2018-12-29T21:24:52.431Z,4.20
2018-12-29T21:27:20.628Z,4.00
2018-12-29T21:29:48.862Z,4.10
2018-12-29T21:32:17.122Z,4.20
2018-12-29T21:34:45.392Z,4.10
2018-12-29T21:37:13.660Z,4.30
2018-12-29T21:39:41.920Z,4.20
2018-12-29T21:42:10.905Z,4.20
2018-12-29T21:44:40.772Z,4.20
2018-12-29T21:47:09.048Z,4.00
2018-12-29T21:49:37.319Z,4.00
2018-12-29T21:52:05.586Z,3.90
2018-12-29T21:54:33.795Z,3.90
2018-12-29T21:57:02.023Z,4.00
2018-12-29T21:59:31.067Z,4.20
2018-12-29T22:01:59.311Z,4.20
2018-12-29T22:04:30.282Z,4.20
2018-12-29T22:06:59.441Z,4.20
2018-12-29T22:09:27.718Z,4.10
2018-12-29T22:11:56.733Z,4.20
2018-12-29T22:14:24.985Z,4.20
2018-12-29T22:16:53.948Z,4.30
2018-12-29T22:19:22.181Z,4.20
2018-12-29T22:21:50.470Z,4.40
2018-12-29T22:24:19.286Z,4.30
2018-12-29T22:26:47.524Z,4.40
2018-12-29T22:29:15.808Z,4.50
2018-12-29T22:31:44.050Z,4.50
2018-12-29T22:34:13.077Z,4.60
2018-12-29T22:36:41.290Z,4.50
2018-12-29T22:39:09.547Z,4.50
2018-12-29T22:41:37.772Z,4.50
2018-12-29T22:44:06.786Z,4.60
2018-12-29T22:46:35.001Z,4.60
2018-12-29T22:49:03.219Z,4.70
2018-12-29T22:51:32.210Z,4.60
2018-12-29T22:54:02.052Z,4.60
2018-12-29T22:56:30.274Z,4.60
2018-12-29T22:58:58.481Z,4.50
2018-12-29T23:01:27.509Z,4.70
2018-12-29T23:03:56.528Z,4.80
2018-12-29T23:06:24.698Z,4.70
2018-12-29T23:08:52.951Z,4.80
2018-12-29T23:11:21.174Z,4.70
2018-12-29T23:13:49.438Z,4.50
2018-12-29T23:16:17.678Z,4.50
2018-12-29T23:18:45.920Z,4.50
2018-12-29T23:21:14.938Z,4.60
2018-12-29T23:23:43.213Z,4.60
2018-12-29T23:26:11.456Z,4.40
2018-12-29T23:28:39.711Z,4.60
2018-12-29T23:31:07.917Z,4.60
2018-12-29T23:33:36.901Z,4.70
2018-12-29T23:36:05.155Z,4.70
2018-12-29T23:38:33.420Z,4.80
2018-12-29T23:41:01.622Z,4.70
2018-12-29T23:43:29.853Z,4.60
2018-12-29T23:45:58.104Z,4.60
2018-12-29T23:48:27.092Z,4.70
2018-12-29T23:51:05.134Z,4.80
2018-12-29T23:53:24.366Z,4.80
2018-12-29T23:55:53.388Z,4.60
2018-12-29T23:58:21.600Z,4.60
